Time;durP1;ratioP1;P1;durP2;ratioP2;P2;SDS_P1;SDS_P2;PMS_P1;PMS_P2;Temp;Humidity;BMP_temperature;BMP_pressure;BME280_temperature;BME280_humidity;BME280_pressure;Samples;Min_cycle;Max_cycle;Signal;HPM_P1;HPM_P2
2023/10/08 00:01:55;;;;;;;4.50;1.20;;;;;;;6.49;69.11;99594.77;106259;1251;73776;-66
2023/10/08 00:04:44;;;;;;;5.20;1.20;;;;;;;6.47;69.44;99594.85;105931;1254;68287;-64
2023/10/08 00:07:31;;;;;;;5.30;1.60;;;;;;;6.47;69.43;99599.63;105876;1251;74034;-64
2023/10/08 00:10:18;;;;;;;7.40;1.70;;;;;;;6.46;68.99;99604.47;105932;1253;59311;-63
2023/10/08 00:13:09;;;;;;;6.50;1.50;;;;;;;6.44;68.96;99599.15;106124;1251;60547;-66
2023/10/08 00:15:56;;;;;;;4.90;1.30;;;;;;;6.40;68.67;99599.09;105937;1257;73649;-63
2023/10/08 00:18:50;;;;;;;4.80;1.20;;;;;;;6.36;69.00;99602.54;105885;1255;69064;-65
2023/10/08 00:21:38;;;;;;;4.40;1.10;;;;;;;6.31;68.97;99601.64;105890;1251;71793;-64
2023/10/08 00:24:26;;;;;;;4.60;1.20;;;;;;;6.26;69.03;99607.77;106162;1251;59263;-63
2023/10/08 00:27:17;;;;;;;5.40;1.30;;;;;;;6.22;69.16;99615.80;105917;1255;60679;-65
2023/10/08 00:30:13;;;;;;;5.10;1.30;;;;;;;6.17;69.16;99615.06;105851;1251;73727;-63
2023/10/08 00:33:00;;;;;;;4.30;1.00;;;;;;;6.11;69.06;99613.13;106043;1255;69348;-66
2023/10/08 00:35:47;;;;;;;7.30;1.50;;;;;;;6.06;68.75;99610.16;106594;1251;73062;-63
2023/10/08 00:38:35;;;;;;;5.40;1.20;;;;;;;6.02;68.48;99606.73;106009;1251;59260;-65
2023/10/08 00:41:22;;;;;;;5.80;1.20;;;;;;;5.98;68.84;99605.57;105848;1251;60992;-64
2023/10/08 00:44:15;;;;;;;4.20;1.30;;;;;;;5.94;68.39;99616.17;106203;1251;73593;-64
2023/10/08 00:47:06;;;;;;;5.20;1.20;;;;;;;5.90;67.93;99623.70;105309;1254;1002953;-64
2023/10/08 00:50:09;;;;;;;4.30;1.30;;;;;;;5.86;67.88;99627.96;106000;1256;73373;-64
2023/10/08 00:53:00;;;;;;;4.50;1.20;;;;;;;5.80;67.25;99631.17;106264;1255;59424;-65
2023/10/08 00:56:04;;;;;;;4.60;1.10;;;;;;;5.77;66.81;99636.29;106079;1257;60453;-64
2023/10/08 00:58:53;;;;;;;6.30;1.30;;;;;;;5.73;66.68;99638.65;106297;1251;72753;-65
2023/10/08 01:01:45;;;;;;;4.20;1.00;;;;;;;5.69;66.43;99644.02;105999;1251;67929;-64
2023/10/08 01:04:34;;;;;;;4.80;1.60;;;;;;;5.66;65.95;99647.39;105955;1251;71859;-66
2023/10/08 01:07:25;;;;;;;4.70;0.90;;;;;;;5.64;65.28;99651.05;106091;1251;59915;-67
2023/10/08 01:10:19;;;;;;;3.90;0.90;;;;;;;5.62;65.18;99657.66;105831;1251;59811;-67
2023/10/08 01:13:13;;;;;;;5.80;1.20;;;;;;;5.58;65.64;99659.48;105918;1251;71191;-66
2023/10/08 01:16:00;;;;;;;5.40;1.10;;;;;;;5.55;64.80;99661.80;106053;1252;67244;-69
2023/10/08 01:18:55;;;;;;;4.00;1.00;;;;;;;5.52;64.58;99663.95;105908;1252;72252;-66
2023/10/08 01:21:42;;;;;;;3.80;1.10;;;;;;;5.48;64.56;99666.98;106158;1251;59327;-64
2023/10/08 01:24:30;;;;;;;6.60;1.30;;;;;;;5.44;64.75;99667.41;105994;1256;59834;-64
2023/10/08 01:27:24;;;;;;;4.10;1.00;;;;;;;5.39;64.56;99672.45;105958;1254;72839;-65
2023/10/08 01:30:17;;;;;;;5.30;1.00;;;;;;;5.35;64.61;99678.22;105895;1256;68897;-64
2023/10/08 01:33:04;;;;;;;5.30;1.20;;;;;;;5.29;64.68;99679.23;106088;1251;71950;-64
2023/10/08 01:35:51;;;;;;;4.90;1.40;;;;;;;5.25;64.88;99683.36;105813;1258;59259;-64
2023/10/08 01:38:38;;;;;;;4.60;1.20;;;;;;;5.20;64.74;99690.16;106050;1256;62222;-64
2023/10/08 01:41:30;;;;;;;5.00;1.30;;;;;;;5.15;64.64;99689.60;105779;1253;71721;-64
2023/10/08 01:44:16;;;;;;;4.40;1.10;;;;;;;5.11;63.78;99694.39;106013;1254;67421;-64
2023/10/08 01:47:04;;;;;;;4.50;1.20;;;;;;;5.11;63.97;99699.86;106092;1256;74165;-64
2023/10/08 01:49:57;;;;;;;4.60;1.20;;;;;;;5.09;63.88;99702.41;106061;1257;59260;-63
2023/10/08 01:52:46;;;;;;;5.80;1.20;;;;;;;5.09;63.41;99704.41;106250;1251;60903;-64
2023/10/08 01:55:45;;;;;;;5.20;1.30;;;;;;;5.09;62.85;99713.31;106190;1251;73975;-65
2023/10/08 01:58:35;;;;;;;4.80;1.10;;;;;;;5.09;63.09;99713.85;106109;1251;67011;-65
2023/10/08 02:01:22;;;;;;;5.90;1.30;;;;;;;5.08;62.90;99716.80;105319;1253;1003278;-67
2023/10/08 02:04:11;;;;;;;4.50;1.20;;;;;;;5.05;62.97;99718.84;105838;1258;59263;-66
2023/10/08 02:06:59;;;;;;;4.80;1.20;;;;;;;5.02;63.22;99723.77;105938;1256;60530;-65
2023/10/08 02:09:46;;;;;;;5.20;1.40;;;;;;;5.01;63.00;99725.81;106129;1251;71702;-63
2023/10/08 02:12:33;;;;;;;4.80;1.20;;;;;;;4.98;62.87;99729.84;105912;1251;68398;-64
2023/10/08 02:15:20;;;;;;;5.00;1.20;;;;;;;4.95;62.94;99738.27;106025;1251;74936;-64
2023/10/08 02:18:07;;;;;;;4.30;1.10;;;;;;;4.91;63.26;99740.06;106046;1251;59253;-65
2023/10/08 02:20:55;;;;;;;5.90;1.30;;;;;;;4.87;63.38;99743.30;105825;1253;61251;-66
2023/10/08 02:23:43;;;;;;;6.00;1.30;;;;;;;4.84;63.10;99742.13;105797;1251;71435;-65
2023/10/08 02:26:30;;;;;;;4.10;1.00;;;;;;;4.81;62.59;99750.22;106272;1256;69365;-64
2023/10/08 02:29:17;;;;;;;4.20;1.10;;;;;;;4.81;62.58;99750.70;106052;1258;72081;-66
2023/10/08 02:32:04;;;;;;;7.10;1.20;;;;;;;4.83;61.99;99747.79;106131;1251;59259;-65
2023/10/08 02:34:51;;;;;;;4.50;1.20;;;;;;;4.83;61.80;99743.05;106194;1256;59933;-64
2023/10/08 02:37:39;;;;;;;4.00;1.20;;;;;;;4.83;61.00;99750.77;105873;1251;73749;-65
2023/10/08 02:40:26;;;;;;;4.60;1.00;;;;;;;4.83;60.90;99753.08;106120;1251;68444;-66
2023/10/08 02:43:15;;;;;;;4.60;1.00;;;;;;;4.83;60.80;99757.45;106103;1257;72909;-64
2023/10/08 02:46:06;;;;;;;4.40;1.10;;;;;;;4.85;60.45;99759.80;105865;1251;59777;-67
2023/10/08 02:48:53;;;;;;;4.80;1.10;;;;;;;4.84;60.60;99759.33;106202;1255;60939;-64
2023/10/08 02:51:44;;;;;;;5.30;1.10;;;;;;;4.83;60.26;99759.02;105915;1252;71213;-66
2023/10/08 02:54:31;;;;;;;4.80;1.00;;;;;;;4.82;60.56;99763.64;106004;1253;69669;-64
2023/10/08 02:57:21;;;;;;;5.30;1.30;;;;;;;4.80;60.51;99767.33;105798;1258;73157;-64
2023/10/08 03:00:12;;;;;;;5.70;1.10;;;;;;;4.77;60.36;99774.63;105942;1253;59653;-64
2023/10/08 03:03:09;;;;;;;4.90;1.20;;;;;;;4.77;60.27;99771.65;106113;1252;59870;-65
2023/10/08 03:05:56;;;;;;;4.50;1.40;;;;;;;4.77;60.36;99776.58;105992;1257;73649;-67
2023/10/08 03:08:43;;;;;;;5.80;1.50;;;;;;;4.77;60.27;99780.09;105187;1256;1003083;-65
2023/10/08 03:11:31;;;;;;;4.60;1.30;;;;;;;4.74;60.60;99780.45;105932;1257;73366;-68
2023/10/08 03:14:22;;;;;;;4.50;1.20;;;;;;;4.72;60.93;99781.98;106043;1259;59317;-65
2023/10/08 03:17:09;;;;;;;5.90;1.20;;;;;;;4.69;61.29;99786.04;105101;1251;1016282;-67
2023/10/08 03:20:01;;;;;;;5.20;1.20;;;;;;;4.66;62.21;99792.56;106420;1251;72261;-66
2023/10/08 03:22:49;;;;;;;3.90;1.00;;;;;;;4.63;62.43;99791.64;105835;1257;68299;-67
2023/10/08 03:25:41;;;;;;;4.10;1.20;;;;;;;4.59;62.82;99784.84;106300;1254;73105;-65
2023/10/08 03:28:34;;;;;;;5.90;0.90;;;;;;;4.60;63.20;99792.36;106037;1257;59330;-65
2023/10/08 03:31:31;;;;;;;4.60;1.10;;;;;;;4.57;63.41;99793.38;105779;1251;59969;-66
2023/10/08 03:34:19;;;;;;;6.50;1.10;;;;;;;4.55;63.98;99799.12;106078;1256;71971;-65
2023/10/08 03:37:06;;;;;;;3.90;0.90;;;;;;;4.53;64.24;99801.33;105809;1253;69440;-66
2023/10/08 03:42:59;;;;;;;3.90;0.90;;;;;;;4.48;65.25;99806.92;106024;1256;59336;-65
2023/10/08 03:45:53;;;;;;;5.60;1.10;;;;;;;4.46;65.22;99810.01;106160;1257;59393;-65
2023/10/08 03:48:44;;;;;;;6.50;1.10;;;;;;;4.45;65.47;99819.34;106153;1257;72514;-63
2023/10/08 03:51:38;;;;;;;5.10;1.20;;;;;;;4.45;65.47;99817.95;106279;1251;66910;-64
2023/10/08 03:54:48;;;;;;;4.50;0.90;;;;;;;4.44;65.78;99817.86;106218;1257;74110;-62
2023/10/08 03:57:41;;;;;;;3.80;0.80;;;;;;;4.41;66.03;99812.72;105143;1255;1002520;-61
2023/10/08 04:00:31;;;;;;;4.60;1.00;;;;;;;4.40;66.15;99813.52;105836;1254;62074;-62
2023/10/08 04:03:41;;;;;;;4.50;1.20;;;;;;;4.39;66.20;99814.62;106041;1253;72653;-60
2023/10/08 04:06:30;;;;;;;5.20;1.10;;;;;;;4.36;66.49;99814.06;105794;1254;68433;-62
2023/10/08 04:12:10;;;;;;;4.20;1.00;;;;;;;4.33;66.96;99819.49;106133;1254;59281;-63
2023/10/08 04:14:58;;;;;;;4.40;1.00;;;;;;;4.34;66.84;99824.39;105234;1258;1002551;-62
2023/10/08 04:17:50;;;;;;;5.20;1.30;;;;;;;4.33;66.99;99823.20;105858;1256;73741;-63
2023/10/08 04:23:24;;;;;;;4.90;1.10;;;;;;;4.31;67.17;99834.55;105957;1254;72807;-63
2023/10/08 04:26:11;;;;;;;3.60;0.90;;;;;;;4.31;66.95;99833.49;105761;1256;59250;-63
2023/10/08 04:29:02;;;;;;;5.00;1.30;;;;;;;4.32;67.30;99837.11;105783;1256;59814;-64
2023/10/08 04:32:01;;;;;;;4.50;1.20;;;;;;;4.32;67.25;99838.04;105936;1259;73819;-63
2023/10/08 04:34:49;;;;;;;7.10;1.20;;;;;;;4.32;67.24;99840.82;105933;1253;69405;-64
2023/10/08 04:37:40;;;;;;;4.30;1.00;;;;;;;4.32;67.43;99848.00;105813;1257;73300;-62
2023/10/08 04:40:33;;;;;;;5.30;1.10;;;;;;;4.31;67.52;99847.59;105837;1265;59307;-62
2023/10/08 04:43:30;;;;;;;5.00;1.00;;;;;;;4.30;67.46;99844.95;105736;1258;60602;-63
2023/10/08 04:46:31;;;;;;;3.90;1.10;;;;;;;4.28;67.76;99851.59;106001;1254;73636;-65
2023/10/08 04:49:28;;;;;;;5.10;0.90;;;;;;;4.24;67.98;99851.58;105847;1257;68881;-65
2023/10/08 04:52:15;;;;;;;5.10;1.20;;;;;;;4.21;68.22;99852.98;105873;1257;73328;-65
2023/10/08 04:55:12;;;;;;;5.30;1.10;;;;;;;4.20;68.49;99857.08;106037;1254;59317;-66
2023/10/08 04:57:59;;;;;;;5.10;1.10;;;;;;;4.20;68.82;99863.41;106037;1255;61077;-65
2023/10/08 05:00:59;;;;;;;6.30;1.40;;;;;;;4.20;68.99;99866.55;105868;1254;72704;-64
2023/10/08 05:09:46;;;;;;;4.50;1.10;;;;;;;4.16;69.83;99884.92;106031;1256;59152;-64
2023/10/08 05:12:34;;;;;;;4.40;1.20;;;;;;;4.17;70.14;99886.27;105786;1257;59776;-63
2023/10/08 05:15:32;;;;;;;6.80;1.30;;;;;;;4.18;70.19;99896.91;105575;1254;73859;-65
2023/10/08 05:21:25;;;;;;;5.50;1.30;;;;;;;4.21;70.26;99886.91;105906;1259;72584;-63
2023/10/08 05:24:14;;;;;;;3.80;1.00;;;;;;;4.24;70.43;99884.81;105770;1257;59340;-65
2023/10/08 05:27:37;;;;;;;4.90;1.30;;;;;;;4.30;70.38;99885.91;104844;1257;1019223;-65
2023/10/08 05:30:16;;;;;;;5.40;1.20;;;;;;;4.36;70.49;99892.41;106187;1252;71692;-65
2023/10/08 05:36:10;;;;;;;6.40;1.80;;;;;;;4.52;70.13;99908.94;105890;1257;71721;-65
2023/10/08 05:42:31;;;;;;;6.80;1.70;;;;;;;4.72;69.83;99915.39;105884;1253;61736;-65
2023/10/08 05:45:29;;;;;;;6.00;1.70;;;;;;;4.85;69.24;99921.70;105710;1257;72777;-63
2023/10/08 05:48:27;;;;;;;5.80;1.40;;;;;;;4.96;68.83;99922.69;105700;1257;68771;-65
2023/10/08 05:51:23;;;;;;;5.50;1.40;;;;;;;5.05;68.56;99928.85;106629;1253;73097;-64
2023/10/08 05:54:35;;;;;;;5.50;1.40;;;;;;;5.13;67.97;99936.28;105812;1256;59336;-64
2023/10/08 05:57:38;;;;;;;8.40;2.10;;;;;;;5.24;67.65;99940.07;105996;1253;60645;-66
2023/10/08 06:00:46;;;;;;;8.30;2.30;;;;;;;5.34;67.00;99941.64;105694;1254;71175;-66
2023/10/08 06:06:57;;;;;;;5.80;1.20;;;;;;;5.51;66.46;99941.14;105902;1260;73285;-64
2023/10/08 06:10:01;;;;;;;4.50;1.40;;;;;;;5.61;65.69;99947.61;105921;1260;60893;-65
2023/10/08 06:12:49;;;;;;;6.30;1.60;;;;;;;5.72;65.11;99952.27;109531;1256;60131;-65
2023/10/08 06:18:42;;;;;;;5.00;1.20;;;;;;;5.91;64.46;99946.15;109600;1253;66340;-66
2023/10/08 06:21:29;;;;;;;4.90;1.20;;;;;;;6.02;63.75;99958.59;109286;1254;71281;-66
2023/10/08 06:24:17;;;;;;;5.30;1.30;;;;;;;6.13;63.43;99965.85;109465;1253;57318;-64
2023/10/08 06:27:04;;;;;;;6.40;1.30;;;;;;;6.23;62.94;99969.98;109445;1254;57774;-65
2023/10/08 06:29:50;;;;;;;7.50;1.50;;;;;;;6.35;63.02;99975.66;109445;1253;72298;-64
2023/10/08 06:32:37;;;;;;;4.90;1.40;;;;;;;6.45;63.07;99982.74;109439;1254;66627;-64
2023/10/08 06:35:26;;;;;;;5.80;1.10;;;;;;;6.56;62.32;99988.30;109593;1252;71192;-66
2023/10/08 06:38:14;;;;;;;6.20;1.50;;;;;;;6.68;62.15;100000.40;109513;1255;58248;-66
2023/10/08 06:41:36;;;;;;;4.80;1.30;;;;;;;6.83;61.21;99999.29;109379;1253;58695;-65
2023/10/08 06:44:38;;;;;;;6.00;1.40;;;;;;;7.15;60.74;100004.14;109352;1253;72478;-64
2023/10/08 06:47:25;;;;;;;6.70;1.40;;;;;;;8.03;59.14;100008.04;109429;1254;67740;-65
2023/10/08 06:50:14;;;;;;;8.50;1.90;;;;;;;9.68;54.48;100000.18;109482;1254;70832;-63
2023/10/08 06:53:07;;;;;;;6.70;1.50;;;;;;;11.39;50.86;100000.40;109466;1252;57012;-66
2023/10/08 06:55:56;;;;;;;5.80;1.60;;;;;;;12.96;46.95;100001.37;109465;1253;57856;-64
2023/10/08 06:58:51;;;;;;;6.00;1.50;;;;;;;14.21;42.85;100001.06;109367;1253;72145;-64
2023/10/08 07:01:45;;;;;;;5.20;1.40;;;;;;;15.34;40.28;100003.86;109510;1252;67959;-65
2023/10/08 07:04:32;;;;;;;4.80;1.20;;;;;;;16.39;38.38;100010.52;109442;1254;71566;-69
2023/10/08 07:07:18;;;;;;;4.60;1.10;;;;;;;17.26;35.62;100006.33;109421;1253;57862;-67
2023/10/08 07:10:10;;;;;;;4.50;1.20;;;;;;;17.66;33.97;100009.20;109437;1254;60264;-65
2023/10/08 07:12:57;;;;;;;5.20;1.20;;;;;;;18.01;32.68;100016.77;109454;1254;71812;-65
2023/10/08 07:15:44;;;;;;;4.70;1.00;;;;;;;18.29;32.01;100011.32;109521;1252;68792;-67
2023/10/08 07:18:33;;;;;;;5.20;1.10;;;;;;;18.69;30.94;100015.30;109510;1255;70545;-68
2023/10/08 07:21:28;;;;;;;5.10;1.10;;;;;;;18.95;30.40;100019.04;109340;1252;57373;-65
2023/10/08 07:24:17;;;;;;;4.90;1.10;;;;;;;19.50;29.80;100026.14;109544;1254;60203;-64
2023/10/08 07:27:08;;;;;;;4.60;1.10;;;;;;;19.87;29.15;100024.55;109386;1257;72093;-66
2023/10/08 07:29:55;;;;;;;4.90;1.10;;;;;;;20.45;28.62;100032.10;109464;1252;67878;-66
2023/10/08 07:32:42;;;;;;;6.30;1.10;;;;;;;20.94;27.28;100038.69;109553;1253;72408;-66
2023/10/08 07:35:30;;;;;;;5.50;1.20;;;;;;;21.04;26.82;100039.20;109419;1254;57055;-63
2023/10/08 07:38:17;;;;;;;5.80;1.50;;;;;;;21.45;26.44;100035.82;109559;1254;58903;-65
2023/10/08 07:41:05;;;;;;;5.30;1.10;;;;;;;21.42;25.66;100040.15;109557;1252;71169;-67
2023/10/08 07:43:58;;;;;;;4.70;1.10;;;;;;;21.52;25.55;100043.85;109324;1254;66608;-66
2023/10/08 07:46:44;;;;;;;4.60;1.10;;;;;;;21.84;25.24;100043.21;109569;1252;71044;-65
2023/10/08 07:49:35;;;;;;;5.10;1.20;;;;;;;22.29;25.27;100045.71;109466;1252;56986;-67
2023/10/08 07:52:22;;;;;;;5.40;1.40;;;;;;;22.68;24.45;100051.30;109427;1253;58873;-66
2023/10/08 07:55:08;;;;;;;5.00;1.20;;;;;;;22.55;23.58;100056.17;109382;1254;72102;-62
2023/10/08 07:57:54;;;;;;;5.70;1.70;;;;;;;22.71;23.87;100052.50;109433;1253;67771;-66
2023/10/08 08:00:51;;;;;;;5.10;1.10;;;;;;;22.81;23.33;100056.27;109406;1253;72628;-64
2023/10/08 08:03:37;;;;;;;5.30;1.30;;;;;;;22.84;23.42;100057.13;109441;1253;57714;-65
2023/10/08 08:06:25;;;;;;;5.30;1.20;;;;;;;23.05;23.19;100065.66;109264;1253;60178;-67
2023/10/08 08:09:19;;;;;;;5.90;1.40;;;;;;;23.48;22.81;100065.79;109601;1254;70982;-65
2023/10/08 08:12:10;;;;;;;6.20;1.70;;;;;;;23.60;22.34;100073.05;109481;1253;67836;-64
2023/10/08 08:14:56;;;;;;;6.30;1.30;;;;;;;23.67;21.59;100077.95;109412;1253;72540;-64
2023/10/08 08:17:47;;;;;;;5.70;1.10;;;;;;;23.37;20.83;100089.92;109204;1253;58346;-66
2023/10/08 08:20:43;;;;;;;7.10;1.00;;;;;;;23.06;21.10;100102.75;109425;1252;58673;-66
2023/10/08 08:23:31;;;;;;;4.70;1.00;;;;;;;23.13;21.29;100094.31;109592;1254;72257;-65
2023/10/08 08:26:27;;;;;;;4.90;1.10;;;;;;;23.45;21.45;100103.84;109341;1254;66332;-67
2023/10/08 08:29:15;;;;;;;5.90;0.90;;;;;;;23.41;21.13;100098.48;109433;1253;71549;-64
2023/10/08 08:32:04;;;;;;;5.10;1.00;;;;;;;23.66;21.05;100111.23;109291;1254;57999;-65
2023/10/08 08:34:52;;;;;;;4.80;0.90;;;;;;;23.38;21.04;100111.36;109355;1254;59059;-66
2023/10/08 08:37:39;;;;;;;4.00;0.80;;;;;;;23.48;21.51;100111.73;109357;1252;72270;-66
2023/10/08 08:40:26;;;;;;;4.40;1.00;;;;;;;23.51;21.33;100118.80;109443;1253;68892;-68
2023/10/08 08:43:13;;;;;;;4.80;0.90;;;;;;;23.42;21.22;100114.01;109333;1253;72325;-67
2023/10/08 08:46:02;;;;;;;4.90;1.10;;;;;;;23.45;21.25;100115.40;109318;1254;56969;-66
2023/10/08 08:48:52;;;;;;;5.00;1.10;;;;;;;23.76;21.18;100113.89;109478;1254;58785;-64
2023/10/08 08:51:41;;;;;;;4.20;1.00;;;;;;;23.68;21.15;100112.31;109410;1254;70794;-68
2023/10/08 08:54:30;;;;;;;5.50;1.10;;;;;;;23.41;21.12;100114.39;109441;1253;67882;-63
2023/10/08 08:57:18;;;;;;;5.20;0.90;;;;;;;23.39;21.23;100118.39;109485;1252;72520;-63
2023/10/08 09:00:10;;;;;;;5.00;1.10;;;;;;;23.64;21.37;100117.69;109488;1253;58709;-65
2023/10/08 09:02:57;;;;;;;4.40;1.10;;;;;;;23.79;20.91;100112.77;109360;1254;60122;-65
2023/10/08 09:05:49;;;;;;;5.40;1.00;;;;;;;23.97;20.40;100112.16;109282;1254;72957;-68
2023/10/08 09:08:37;;;;;;;4.70;1.00;;;;;;;23.78;20.18;100113.14;109530;1254;66509;-65
2023/10/08 09:11:25;;;;;;;4.40;0.90;;;;;;;23.89;20.18;100118.15;109494;1254;73491;-65
2023/10/08 09:14:12;;;;;;;5.30;0.90;;;;;;;24.37;20.43;100122.98;109441;1254;59020;-70
2023/10/08 09:17:00;;;;;;;5.20;1.10;;;;;;;24.79;20.09;100137.58;109479;1253;58839;-64
2023/10/08 09:19:47;;;;;;;4.40;0.90;;;;;;;24.76;19.71;100128.34;109418;1254;71056;-64
2023/10/08 09:22:35;;;;;;;5.50;1.00;;;;;;;24.50;20.22;100136.81;109551;1254;68119;-65
2023/10/08 09:25:24;;;;;;;5.70;0.80;;;;;;;24.54;19.67;100140.25;109563;1253;72492;-66
2023/10/08 09:28:15;;;;;;;4.40;1.10;;;;;;;24.92;19.68;100144.88;109516;1253;56948;-67
2023/10/08 09:31:02;;;;;;;4.80;0.90;;;;;;;24.88;19.95;100150.25;109431;1253;61119;-65
2023/10/08 09:33:56;;;;;;;4.90;1.10;;;;;;;25.28;20.11;100148.49;109487;1252;71150;-65
2023/10/08 09:36:43;;;;;;;5.60;1.00;;;;;;;25.52;18.97;100158.79;109511;1252;68759;-67
2023/10/08 09:39:36;;;;;;;5.20;0.90;;;;;;;25.20;19.23;100167.07;109464;1253;71052;-63
2023/10/08 09:42:24;;;;;;;6.90;1.20;;;;;;;25.43;18.94;100164.59;109553;1253;56903;-65
2023/10/08 09:45:11;;;;;;;4.50;1.00;;;;;;;25.48;19.09;100169.85;109450;1252;60064;-66
2023/10/08 09:48:01;;;;;;;5.80;1.10;;;;;;;25.93;18.86;100178.98;109584;1253;71219;-65
2023/10/08 09:50:55;;;;;;;4.20;0.80;;;;;;;25.91;17.82;100183.72;109563;1253;66459;-67
2023/10/08 09:53:55;;;;;;;4.30;0.90;;;;;;;26.05;17.68;100185.17;109400;1251;72531;-65
2023/10/08 09:56:44;;;;;;;4.80;0.90;;;;;;;26.47;17.71;100177.02;109544;1251;57651;-64
2023/10/08 09:59:30;;;;;;;5.10;1.10;;;;;;;26.80;17.55;100176.90;109586;1251;59053;-66
2023/10/08 10:02:21;;;;;;;5.60;0.80;;;;;;;26.43;18.00;100184.81;109643;1251;73723;-68
2023/10/08 10:05:21;;;;;;;5.40;0.90;;;;;;;26.18;18.33;100197.18;109538;1251;66724;-67
2023/10/08 10:08:11;;;;;;;4.90;1.00;;;;;;;26.50;18.52;100199.37;109509;1251;71396;-67
2023/10/08 10:10:59;;;;;;;5.00;1.00;;;;;;;26.40;18.17;100206.31;109461;1253;58827;-68
2023/10/08 10:13:59;;;;;;;4.80;1.00;;;;;;;26.40;17.97;100206.19;109578;1251;58902;-66
2023/10/08 10:17:09;;;;;;;5.10;1.00;;;;;;;26.06;18.14;100215.37;109661;1251;73256;-69
2023/10/08 10:19:59;;;;;;;4.60;0.90;;;;;;;25.57;18.57;100213.30;109544;1251;67901;-64
2023/10/08 10:22:45;;;;;;;4.70;1.00;;;;;;;25.38;18.84;100211.04;109506;1251;71462;-65
2023/10/08 10:25:37;;;;;;;5.40;1.10;;;;;;;25.60;18.74;100211.77;109626;1251;57811;-64
2023/10/08 10:28:24;;;;;;;5.00;1.20;;;;;;;25.44;18.86;100215.84;109544;1251;59282;-66
2023/10/08 10:31:19;;;;;;;5.30;1.10;;;;;;;25.32;18.72;100224.45;109639;1251;70735;-66
2023/10/08 10:34:09;;;;;;;5.90;0.90;;;;;;;25.41;18.91;100231.35;109373;1253;66803;-66
2023/10/08 10:37:02;;;;;;;5.40;1.10;;;;;;;25.25;18.95;100223.91;109410;1253;71207;-67
2023/10/08 10:39:55;;;;;;;4.80;1.00;;;;;;;25.11;19.33;100225.98;109461;1252;59132;-65
2023/10/08 10:42:53;;;;;;;5.70;1.20;;;;;;;25.02;19.84;100225.36;109421;1251;219736;-63
2023/10/08 10:45:42;;;;;;;4.90;1.10;;;;;;;24.54;19.84;100232.76;109502;1251;73329;-64
2023/10/08 10:48:34;;;;;;;5.00;1.10;;;;;;;24.54;20.15;100233.65;109542;1251;66470;-66
2023/10/08 10:51:22;;;;;;;5.20;0.90;;;;;;;24.53;20.42;100226.45;109501;1251;72333;-64
2023/10/08 10:54:09;;;;;;;3.90;1.00;;;;;;;24.30;20.40;100228.20;109483;1251;57923;-64
2023/10/08 10:57:07;;;;;;;5.90;1.40;;;;;;;24.33;20.34;100225.23;109522;1253;58154;-65
2023/10/08 11:00:05;;;;;;;4.50;1.00;;;;;;;23.90;21.11;100236.25;109595;1251;72166;-66
2023/10/08 11:02:59;;;;;;;4.50;0.90;;;;;;;22.24;22.03;100255.89;109570;1251;68994;-66
2023/10/08 11:05:51;;;;;;;5.20;1.20;;;;;;;21.06;23.18;100258.73;109458;1251;72481;-63
2023/10/08 11:08:38;;;;;;;4.30;1.00;;;;;;;20.90;23.01;100261.86;109527;1251;57927;-64
2023/10/08 11:11:28;;;;;;;4.80;1.10;;;;;;;20.71;23.48;100260.75;109549;1251;58838;-65
2023/10/08 11:14:18;;;;;;;6.60;1.30;;;;;;;20.90;23.55;100262.04;109396;1254;72024;-62
2023/10/08 11:17:33;;;;;;;5.40;1.00;;;;;;;20.98;23.26;100270.29;109514;1251;67758;-65
2023/10/08 11:20:32;;;;;;;4.40;0.90;;;;;;;20.88;23.84;100267.16;109492;1251;72660;-65
2023/10/08 11:23:43;;;;;;;4.60;1.10;;;;;;;20.67;24.27;100267.17;109504;1251;58820;-69
2023/10/08 11:26:38;;;;;;;5.70;1.20;;;;;;;20.41;25.21;100270.98;109630;1251;60220;-64
2023/10/08 11:29:25;;;;;;;4.90;1.10;;;;;;;20.22;25.31;100269.00;109461;1253;71869;-63
2023/10/08 11:32:17;;;;;;;4.60;0.90;;;;;;;19.99;25.51;100269.48;109494;1251;66895;-64
2023/10/08 11:35:15;;;;;;;4.70;1.10;;;;;;;20.15;25.81;100277.02;109565;1251;72535;-63
2023/10/08 11:38:03;;;;;;;5.20;1.00;;;;;;;19.86;25.91;100285.38;109518;1251;56995;-63
2023/10/08 11:40:49;;;;;;;5.20;1.20;;;;;;;19.59;25.99;100281.18;109503;1251;59173;-66
2023/10/08 11:43:36;;;;;;;4.60;1.00;;;;;;;19.18;26.43;100289.27;109546;1251;71129;-64
2023/10/08 11:46:27;;;;;;;5.50;1.20;;;;;;;18.75;27.50;100286.55;109544;1251;67819;-63
2023/10/08 11:49:25;;;;;;;5.30;1.20;;;;;;;18.59;27.99;100283.48;109591;1251;72622;-65
2023/10/08 11:52:11;;;;;;;5.60;1.00;;;;;;;18.27;28.75;100287.60;109524;1251;57189;-64
2023/10/08 11:54:57;;;;;;;5.80;1.20;;;;;;;17.79;29.51;100296.57;109615;1251;60273;-64
2023/10/08 11:57:50;;;;;;;4.80;0.90;;;;;;;17.56;29.85;100292.78;109544;1251;71007;-63
2023/10/08 12:00:43;;;;;;;7.10;1.20;;;;;;;17.54;30.37;100296.05;109574;1251;66508;-64
2023/10/08 12:03:31;;;;;;;5.00;1.30;;;;;;;17.67;30.28;100296.17;109627;1251;71227;-63
2023/10/08 12:06:18;;;;;;;4.90;1.30;;;;;;;17.24;30.45;100304.90;109591;1251;56923;-64
2023/10/08 12:09:12;;;;;;;7.00;1.30;;;;;;;16.63;30.61;100317.05;109471;1253;61163;-66
2023/10/08 12:11:58;;;;;;;8.50;1.80;;;;;;;15.96;31.60;100320.38;109609;1251;70844;-65
2023/10/08 12:14:47;;;;;;;5.60;1.50;;;;;;;15.69;32.14;100331.98;109545;1251;68747;-65
2023/10/08 12:17:39;;;;;;;4.70;1.20;;;;;;;15.36;31.72;100325.98;109594;1251;72741;-64
2023/10/08 12:20:27;;;;;;;6.10;1.30;;;;;;;14.93;32.52;100329.22;109538;1252;57848;-65
2023/10/08 12:23:24;;;;;;;5.80;1.10;;;;;;;14.61;33.09;100335.66;109636;1251;60192;-63
2023/10/08 12:26:15;;;;;;;5.50;1.40;;;;;;;14.04;33.44;100336.66;109579;1251;71051;-64
2023/10/08 12:29:02;;;;;;;5.50;1.30;;;;;;;13.58;34.73;100340.08;109457;1251;66417;-62
2023/10/08 12:31:48;;;;;;;4.70;1.20;;;;;;;13.19;35.24;100347.27;109544;1251;72369;-64
2023/10/08 12:34:35;;;;;;;5.20;1.20;;;;;;;12.99;35.47;100341.63;109572;1251;57696;-64
2023/10/08 12:37:22;;;;;;;5.10;1.10;;;;;;;12.87;35.64;100341.86;109524;1253;58818;-64
2023/10/08 12:40:11;;;;;;;5.80;1.20;;;;;;;12.70;35.91;100339.05;109566;1251;73162;-65
2023/10/08 12:42:58;;;;;;;4.80;1.20;;;;;;;12.58;37.00;100338.23;109494;1253;68401;-67
2023/10/08 12:45:56;;;;;;;6.30;1.10;;;;;;;12.41;38.10;100336.21;109536;1251;71105;-65
2023/10/08 12:48:48;;;;;;;6.40;1.70;;;;;;;12.15;38.40;100350.02;109530;1253;57718;-65
2023/10/08 12:51:35;;;;;;;5.40;1.10;;;;;;;12.00;38.59;100349.41;109544;1251;60138;-64
2023/10/08 12:54:23;;;;;;;5.50;1.40;;;;;;;11.94;39.45;100344.37;108853;1251;1002459;-64
2023/10/08 12:57:09;;;;;;;6.40;1.50;;;;;;;12.00;39.68;100342.66;109564;1251;67728;-63
2023/10/08 12:59:57;;;;;;;5.40;1.40;;;;;;;11.87;40.08;100341.57;109398;1251;72429;-64
2023/10/08 13:02:49;;;;;;;5.10;1.20;;;;;;;11.75;40.54;100357.05;109525;1251;58771;-66
2023/10/08 13:05:36;;;;;;;5.90;1.30;;;;;;;11.66;41.20;100358.13;109510;1251;57782;-64
2023/10/08 13:08:27;;;;;;;6.10;1.40;;;;;;;11.62;41.32;100354.14;109637;1251;71188;-63
2023/10/08 13:11:13;;;;;;;4.90;1.20;;;;;;;11.64;41.03;100358.23;109638;1251;66695;-63
2023/10/08 13:13:59;;;;;;;4.40;1.00;;;;;;;11.69;41.24;100358.40;109577;1251;71145;-64
2023/10/08 13:16:49;;;;;;;5.10;1.20;;;;;;;11.62;41.66;100358.79;109450;1252;56963;-64
2023/10/08 13:19:35;;;;;;;5.30;1.40;;;;;;;11.54;41.53;100363.84;109555;1251;60306;-64
2023/10/08 13:22:24;;;;;;;5.70;1.50;;;;;;;11.37;42.35;100368.81;109664;1251;72187;-65
2023/10/08 13:25:12;;;;;;;4.50;1.10;;;;;;;11.26;42.59;100374.11;109575;1251;67944;-64
2023/10/08 13:28:00;;;;;;;5.50;1.40;;;;;;;11.20;42.59;100376.13;109563;1251;73662;-64
2023/10/08 13:30:47;;;;;;;6.70;1.50;;;;;;;11.19;42.79;100376.94;109517;1251;57635;-64
2023/10/08 13:33:33;;;;;;;5.30;1.60;;;;;;;11.18;43.38;100375.60;109478;1251;60237;-67
2023/10/08 13:36:20;;;;;;;6.40;1.90;;;;;;;11.06;44.36;100378.10;109478;1251;72266;-65
2023/10/08 13:39:17;;;;;;;5.30;1.20;;;;;;;10.93;43.97;100374.13;109575;1251;66818;-67
2023/10/08 13:42:04;;;;;;;4.60;1.10;;;;;;;10.84;44.56;100377.54;109547;1251;72658;-65
2023/10/08 13:44:51;;;;;;;4.40;1.20;;;;;;;10.80;44.92;100378.80;109590;1251;57850;-64